sensor_id;sensor_type;location;lat;lon;timestamp;P1;durP1;ratioP1;P2;durP2;ratioP2
14231;SDS011;7200;52.194;9.900;2022-11-20T00:00:51;2.10;;;2.10;;
14231;SDS011;7200;52.194;9.900;2022-11-20T00:03:19;0.80;;;0.80;;
14231;SDS011;7200;52.194;9.900;2022-11-20T00:05:45;7.23;;;6.57;;
14231;SDS011;7200;52.194;9.900;2022-11-20T00:08:10;7.70;;;3.53;;
14231;SDS011;7200;52.194;9.900;2022-11-20T00:10:39;19.07;;;13.00;;
14231;SDS011;7200;52.194;9.900;2022-11-20T00:13:08;1.43;;;1.43;;
14231;SDS011;7200;52.194;9.900;2022-11-20T00:15:33;1.83;;;1.80;;
14231;SDS011;7200;52.194;9.900;2022-11-20T00:17:59;4.33;;;3.03;;
14231;SDS011;7200;52.194;9.900;2022-11-20T00:20:24;1.60;;;1.30;;
14231;SDS011;7200;52.194;9.900;2022-11-20T00:22:50;1.43;;;1.43;;
14231;SDS011;7200;52.194;9.900;2022-11-20T00:25:16;1.13;;;1.13;;
14231;SDS011;7200;52.194;9.900;2022-11-20T00:27:50;1.10;;;1.03;;
14231;SDS011;7200;52.194;9.900;2022-11-20T00:30:15;3.80;;;2.63;;
14231;SDS011;7200;52.194;9.900;2022-11-20T00:32:41;3.23;;;2.93;;
14231;SDS011;7200;52.194;9.900;2022-11-20T00:35:06;5.40;;;2.70;;
14231;SDS011;7200;52.194;9.900;2022-11-20T00:37:32;0.30;;;0.30;;
14231;SDS011;7200;52.194;9.900;2022-11-20T00:39:57;1.43;;;1.43;;
14231;SDS011;7200;52.194;9.900;2022-11-20T00:42:22;14.43;;;3.93;;
14231;SDS011;7200;52.194;9.900;2022-11-20T00:44:47;0.80;;;0.80;;
14231;SDS011;7200;52.194;9.900;2022-11-20T00:47:13;1.43;;;1.43;;
14231;SDS011;7200;52.194;9.900;2022-11-20T00:49:38;6.70;;;1.57;;
14231;SDS011;7200;52.194;9.900;2022-11-20T00:52:04;1.83;;;1.73;;
14231;SDS011;7200;52.194;9.900;2022-11-20T00:54:29;0.50;;;0.50;;
14231;SDS011;7200;52.194;9.900;2022-11-20T00:56:54;1.53;;;1.43;;
14231;SDS011;7200;52.194;9.900;2022-11-20T00:59:19;0.90;;;0.90;;
14231;SDS011;7200;52.194;9.900;2022-11-20T01:01:45;1.50;;;1.40;;
14231;SDS011;7200;52.194;9.900;2022-11-20T01:04:10;1.33;;;1.33;;
14231;SDS011;7200;52.194;9.900;2022-11-20T01:06:36;1.83;;;1.73;;
14231;SDS011;7200;52.194;9.900;2022-11-20T01:09:07;4.77;;;4.47;;
14231;SDS011;7200;52.194;9.900;2022-11-20T01:12:22;1.10;;;1.10;;
14231;SDS011;7200;52.194;9.900;2022-11-20T01:14:31;2.77;;;2.57;;
14231;SDS011;7200;52.194;9.900;2022-11-20T01:16:57;11.70;;;2.87;;
14231;SDS011;7200;52.194;9.900;2022-11-20T01:19:22;1.17;;;1.17;;
14231;SDS011;7200;52.194;9.900;2022-11-20T01:21:49;2.03;;;1.83;;
14231;SDS011;7200;52.194;9.900;2022-11-20T01:24:18;3.07;;;2.87;;
14231;SDS011;7200;52.194;9.900;2022-11-20T01:26:46;2.13;;;2.00;;
14231;SDS011;7200;52.194;9.900;2022-11-20T01:29:13;0.27;;;0.27;;
14231;SDS011;7200;52.194;9.900;2022-11-20T01:31:41;1.07;;;1.07;;
14231;SDS011;7200;52.194;9.900;2022-11-20T01:34:13;0.87;;;0.87;;
14231;SDS011;7200;52.194;9.900;2022-11-20T01:36:40;2.90;;;2.70;;
14231;SDS011;7200;52.194;9.900;2022-11-20T01:39:11;1.00;;;1.00;;
14231;SDS011;7200;52.194;9.900;2022-11-20T01:41:38;2.20;;;1.93;;
14231;SDS011;7200;52.194;9.900;2022-11-20T01:44:41;10.17;;;2.97;;
14231;SDS011;7200;52.194;9.900;2022-11-20T01:47:30;5.10;;;3.43;;
14231;SDS011;7200;52.194;9.900;2022-11-20T01:52:30;4.13;;;2.33;;
14231;SDS011;7200;52.194;9.900;2022-11-20T01:55:03;3.50;;;2.80;;
14231;SDS011;7200;52.194;9.900;2022-11-20T01:57:29;2.23;;;2.13;;
14231;SDS011;7200;52.194;9.900;2022-11-20T02:00:10;0.80;;;0.80;;
14231;SDS011;7200;52.194;9.900;2022-11-20T02:02:37;5.33;;;1.30;;
14231;SDS011;7200;52.194;9.900;2022-11-20T02:05:07;0.50;;;0.50;;
14231;SDS011;7200;52.194;9.900;2022-11-20T02:07:39;0.50;;;0.50;;
14231;SDS011;7200;52.194;9.900;2022-11-20T02:10:05;3.27;;;3.17;;
14231;SDS011;7200;52.194;9.900;2022-11-20T02:12:30;0.53;;;0.53;;
14231;SDS011;7200;52.194;9.900;2022-11-20T02:15:15;0.67;;;0.67;;
14231;SDS011;7200;52.194;9.900;2022-11-20T02:17:40;0.20;;;0.20;;
14231;SDS011;7200;52.194;9.900;2022-11-20T02:20:05;0.20;;;0.20;;
14231;SDS011;7200;52.194;9.900;2022-11-20T02:22:33;2.23;;;2.17;;
14231;SDS011;7200;52.194;9.900;2022-11-20T02:25:03;0.83;;;0.83;;
14231;SDS011;7200;52.194;9.900;2022-11-20T02:27:31;0.67;;;0.67;;
14231;SDS011;7200;52.194;9.900;2022-11-20T02:29:57;0.20;;;0.20;;
14231;SDS011;7200;52.194;9.900;2022-11-20T02:32:31;0.23;;;0.23;;
14231;SDS011;7200;52.194;9.900;2022-11-20T02:35:05;2.30;;;2.20;;
14231;SDS011;7200;52.194;9.900;2022-11-20T02:37:33;0.73;;;0.73;;
14231;SDS011;7200;52.194;9.900;2022-11-20T02:40:02;2.07;;;1.93;;
14231;SDS011;7200;52.194;9.900;2022-11-20T02:42:28;1.33;;;1.33;;
14231;SDS011;7200;52.194;9.900;2022-11-20T02:44:53;0.63;;;0.63;;
14231;SDS011;7200;52.194;9.900;2022-11-20T02:47:18;0.50;;;0.50;;
14231;SDS011;7200;52.194;9.900;2022-11-20T02:49:43;0.30;;;0.30;;
14231;SDS011;7200;52.194;9.900;2022-11-20T02:52:09;0.87;;;0.87;;
14231;SDS011;7200;52.194;9.900;2022-11-20T02:54:34;1.80;;;1.70;;
14231;SDS011;7200;52.194;9.900;2022-11-20T02:56:59;0.40;;;0.40;;
14231;SDS011;7200;52.194;9.900;2022-11-20T02:59:24;1.17;;;1.13;;
14231;SDS011;7200;52.194;9.900;2022-11-20T03:01:50;0.20;;;0.20;;
14231;SDS011;7200;52.194;9.900;2022-11-20T03:04:15;0.30;;;0.30;;
14231;SDS011;7200;52.194;9.900;2022-11-20T03:06:40;0.50;;;0.50;;
14231;SDS011;7200;52.194;9.900;2022-11-20T03:09:05;1.57;;;1.57;;
14231;SDS011;7200;52.194;9.900;2022-11-20T03:11:31;0.60;;;0.60;;
14231;SDS011;7200;52.194;9.900;2022-11-20T03:13:56;2.00;;;1.27;;
14231;SDS011;7200;52.194;9.900;2022-11-20T03:16:22;2.07;;;1.97;;
14231;SDS011;7200;52.194;9.900;2022-11-20T03:18:48;5.07;;;2.13;;
14231;SDS011;7200;52.194;9.900;2022-11-20T03:21:14;0.63;;;0.63;;
14231;SDS011;7200;52.194;9.900;2022-11-20T03:23:41;1.03;;;1.03;;
14231;SDS011;7200;52.194;9.900;2022-11-20T03:26:17;8.80;;;8.40;;
14231;SDS011;7200;52.194;9.900;2022-11-20T03:28:49;0.53;;;0.53;;
14231;SDS011;7200;52.194;9.900;2022-11-20T03:31:16;0.40;;;0.40;;
14231;SDS011;7200;52.194;9.900;2022-11-20T03:33:43;1.33;;;1.13;;
14231;SDS011;7200;52.194;9.900;2022-11-20T03:36:09;0.70;;;0.70;;
14231;SDS011;7200;52.194;9.900;2022-11-20T03:38:38;0.97;;;0.97;;
14231;SDS011;7200;52.194;9.900;2022-11-20T03:41:22;0.60;;;0.60;;
14231;SDS011;7200;52.194;9.900;2022-11-20T03:43:49;1.53;;;0.93;;
14231;SDS011;7200;52.194;9.900;2022-11-20T03:46:22;1.17;;;1.17;;
14231;SDS011;7200;52.194;9.900;2022-11-20T03:48:49;1.27;;;1.07;;
14231;SDS011;7200;52.194;9.900;2022-11-20T03:51:18;3.50;;;1.90;;
14231;SDS011;7200;52.194;9.900;2022-11-20T03:53:53;0.37;;;0.37;;
14231;SDS011;7200;52.194;9.900;2022-11-20T03:56:25;2.00;;;1.90;;
14231;SDS011;7200;52.194;9.900;2022-11-20T03:58:52;0.37;;;0.37;;
14231;SDS011;7200;52.194;9.900;2022-11-20T04:01:18;0.53;;;0.53;;
14231;SDS011;7200;52.194;9.900;2022-11-20T04:03:46;0.20;;;0.20;;
14231;SDS011;7200;52.194;9.900;2022-11-20T04:06:12;1.63;;;1.57;;
14231;SDS011;7200;52.194;9.900;2022-11-20T04:08:45;1.37;;;1.33;;
14231;SDS011;7200;52.194;9.900;2022-11-20T04:11:21;2.53;;;1.33;;
14231;SDS011;7200;52.194;9.900;2022-11-20T04:13:48;1.17;;;0.90;;
14231;SDS011;7200;52.194;9.900;2022-11-20T04:16:15;0.20;;;0.20;;
14231;SDS011;7200;52.194;9.900;2022-11-20T04:18:42;0.30;;;0.30;;
14231;SDS011;7200;52.194;9.900;2022-11-20T04:21:08;0.63;;;0.63;;
14231;SDS011;7200;52.194;9.900;2022-11-20T04:23:34;0.93;;;0.53;;
14231;SDS011;7200;52.194;9.900;2022-11-20T04:28:32;0.57;;;0.57;;
14231;SDS011;7200;52.194;9.900;2022-11-20T04:31:01;0.20;;;0.20;;
14231;SDS011;7200;52.194;9.900;2022-11-20T04:33:35;0.63;;;0.63;;
14231;SDS011;7200;52.194;9.900;2022-11-20T04:36:05;0.57;;;0.57;;
14231;SDS011;7200;52.194;9.900;2022-11-20T04:38:33;4.57;;;0.77;;
14231;SDS011;7200;52.194;9.900;2022-11-20T04:41:00;0.20;;;0.20;;
14231;SDS011;7200;52.194;9.900;2022-11-20T04:43:27;0.20;;;0.20;;
14231;SDS011;7200;52.194;9.900;2022-11-20T04:45:53;0.20;;;0.20;;
14231;SDS011;7200;52.194;9.900;2022-11-20T04:48:19;0.63;;;0.63;;
14231;SDS011;7200;52.194;9.900;2022-11-20T04:50:45;0.77;;;0.77;;
14231;SDS011;7200;52.194;9.900;2022-11-20T04:53:10;0.43;;;0.40;;
14231;SDS011;7200;52.194;9.900;2022-11-20T04:55:35;0.33;;;0.33;;
14231;SDS011;7200;52.194;9.900;2022-11-20T04:58:00;5.07;;;1.80;;
14231;SDS011;7200;52.194;9.900;2022-11-20T05:00:26;5.33;;;2.77;;
14231;SDS011;7200;52.194;9.900;2022-11-20T05:02:51;0.20;;;0.20;;
14231;SDS011;7200;52.194;9.900;2022-11-20T05:05:16;0.73;;;0.73;;
14231;SDS011;7200;52.194;9.900;2022-11-20T05:07:41;0.20;;;0.20;;
14231;SDS011;7200;52.194;9.900;2022-11-20T05:10:07;0.63;;;0.63;;
14231;SDS011;7200;52.194;9.900;2022-11-20T05:12:32;0.27;;;0.27;;
14231;SDS011;7200;52.194;9.900;2022-11-20T05:14:58;0.20;;;0.20;;
14231;SDS011;7200;52.194;9.900;2022-11-20T05:17:23;0.77;;;0.77;;
14231;SDS011;7200;52.194;9.900;2022-11-20T05:19:48;0.20;;;0.20;;
14231;SDS011;7200;52.194;9.900;2022-11-20T05:22:13;0.87;;;0.87;;
14231;SDS011;7200;52.194;9.900;2022-11-20T05:24:39;0.50;;;0.50;;
14231;SDS011;7200;52.194;9.900;2022-11-20T05:27:04;0.43;;;0.43;;
14231;SDS011;7200;52.194;9.900;2022-11-20T05:29:29;2.63;;;2.53;;
14231;SDS011;7200;52.194;9.900;2022-11-20T05:31:54;0.13;;;0.13;;
14231;SDS011;7200;52.194;9.900;2022-11-20T05:34:20;2.80;;;2.70;;
14231;SDS011;7200;52.194;9.900;2022-11-20T05:36:45;1.17;;;1.17;;
14231;SDS011;7200;52.194;9.900;2022-11-20T05:39:10;0.50;;;0.50;;
14231;SDS011;7200;52.194;9.900;2022-11-20T05:41:36;0.20;;;0.20;;
14231;SDS011;7200;52.194;9.900;2022-11-20T05:44:01;1.67;;;0.73;;
14231;SDS011;7200;52.194;9.900;2022-11-20T05:46:26;1.60;;;1.50;;
14231;SDS011;7200;52.194;9.900;2022-11-20T05:48:52;1.80;;;1.60;;
14231;SDS011;7200;52.194;9.900;2022-11-20T05:51:17;1.80;;;1.77;;
14231;SDS011;7200;52.194;9.900;2022-11-20T05:53:44;1.43;;;1.33;;
14231;SDS011;7200;52.194;9.900;2022-11-20T05:56:12;1.13;;;1.13;;
14231;SDS011;7200;52.194;9.900;2022-11-20T05:58:39;1.27;;;1.17;;
14231;SDS011;7200;52.194;9.900;2022-11-20T06:01:06;0.90;;;0.90;;
14231;SDS011;7200;52.194;9.900;2022-11-20T06:03:36;1.17;;;1.13;;
14231;SDS011;7200;52.194;9.900;2022-11-20T06:06:02;2.90;;;2.67;;
14231;SDS011;7200;52.194;9.900;2022-11-20T06:08:29;0.50;;;0.50;;
14231;SDS011;7200;52.194;9.900;2022-11-20T06:10:55;0.97;;;0.97;;
14231;SDS011;7200;52.194;9.900;2022-11-20T06:13:20;0.20;;;0.20;;
14231;SDS011;7200;52.194;9.900;2022-11-20T06:15:49;0.20;;;0.20;;
14231;SDS011;7200;52.194;9.900;2022-11-20T06:18:15;0.77;;;0.60;;
14231;SDS011;7200;52.194;9.900;2022-11-20T06:20:40;0.50;;;0.50;;
14231;SDS011;7200;52.194;9.900;2022-11-20T06:23:05;0.87;;;0.87;;
14231;SDS011;7200;52.194;9.900;2022-11-20T06:25:31;0.20;;;0.20;;
14231;SDS011;7200;52.194;9.900;2022-11-20T06:27:56;0.87;;;0.87;;
14231;SDS011;7200;52.194;9.900;2022-11-20T06:30:21;0.40;;;0.40;;
14231;SDS011;7200;52.194;9.900;2022-11-20T06:32:46;1.03;;;1.03;;
14231;SDS011;7200;52.194;9.900;2022-11-20T06:35:12;0.20;;;0.20;;
14231;SDS011;7200;52.194;9.900;2022-11-20T06:37:37;0.20;;;0.20;;
14231;SDS011;7200;52.194;9.900;2022-11-20T06:40:02;0.70;;;0.70;;
14231;SDS011;7200;52.194;9.900;2022-11-20T06:42:28;1.63;;;1.60;;
14231;SDS011;7200;52.194;9.900;2022-11-20T06:44:53;0.50;;;0.50;;
14231;SDS011;7200;52.194;9.900;2022-11-20T06:47:18;0.20;;;0.20;;
14231;SDS011;7200;52.194;9.900;2022-11-20T06:49:44;0.20;;;0.20;;
14231;SDS011;7200;52.194;9.900;2022-11-20T06:52:09;0.20;;;0.20;;
14231;SDS011;7200;52.194;9.900;2022-11-20T06:54:34;0.70;;;0.70;;
14231;SDS011;7200;52.194;9.900;2022-11-20T06:56:59;0.20;;;0.20;;
14231;SDS011;7200;52.194;9.900;2022-11-20T06:59:24;1.07;;;0.70;;
14231;SDS011;7200;52.194;9.900;2022-11-20T07:01:50;0.73;;;0.73;;
14231;SDS011;7200;52.194;9.900;2022-11-20T07:04:15;0.20;;;0.20;;
14231;SDS011;7200;52.194;9.900;2022-11-20T07:06:40;0.30;;;0.30;;
14231;SDS011;7200;52.194;9.900;2022-11-20T07:09:06;0.60;;;0.60;;
14231;SDS011;7200;52.194;9.900;2022-11-20T07:11:31;0.53;;;0.53;;
14231;SDS011;7200;52.194;9.900;2022-11-20T07:13:56;0.20;;;0.20;;
14231;SDS011;7200;52.194;9.900;2022-11-20T07:16:21;1.07;;;1.07;;
14231;SDS011;7200;52.194;9.900;2022-11-20T07:18:47;0.60;;;0.60;;
14231;SDS011;7200;52.194;9.900;2022-11-20T07:21:12;0.67;;;0.67;;
14231;SDS011;7200;52.194;9.900;2022-11-20T07:23:37;0.70;;;0.70;;
14231;SDS011;7200;52.194;9.900;2022-11-20T07:26:04;4.20;;;3.80;;
14231;SDS011;7200;52.194;9.900;2022-11-20T07:28:33;0.20;;;0.20;;
14231;SDS011;7200;52.194;9.900;2022-11-20T07:30:58;0.87;;;0.87;;
14231;SDS011;7200;52.194;9.900;2022-11-20T07:33:24;2.00;;;0.83;;
14231;SDS011;7200;52.194;9.900;2022-11-20T07:35:49;0.20;;;0.20;;
14231;SDS011;7200;52.194;9.900;2022-11-20T07:38:16;0.20;;;0.20;;
14231;SDS011;7200;52.194;9.900;2022-11-20T07:40:41;0.33;;;0.33;;
14231;SDS011;7200;52.194;9.900;2022-11-20T07:43:06;0.73;;;0.73;;
14231;SDS011;7200;52.194;9.900;2022-11-20T07:45:32;0.30;;;0.30;;
14231;SDS011;7200;52.194;9.900;2022-11-20T07:47:57;1.60;;;1.53;;
14231;SDS011;7200;52.194;9.900;2022-11-20T07:50:22;0.20;;;0.20;;
14231;SDS011;7200;52.194;9.900;2022-11-20T07:52:48;0.20;;;0.20;;
14231;SDS011;7200;52.194;9.900;2022-11-20T07:55:13;1.03;;;1.03;;
14231;SDS011;7200;52.194;9.900;2022-11-20T07:57:39;0.17;;;0.17;;
14231;SDS011;7200;52.194;9.900;2022-11-20T08:00:05;0.30;;;0.30;;
14231;SDS011;7200;52.194;9.900;2022-11-20T08:02:34;0.47;;;0.47;;
14231;SDS011;7200;52.194;9.900;2022-11-20T08:05:01;1.47;;;1.37;;
14231;SDS011;7200;52.194;9.900;2022-11-20T08:07:26;1.23;;;1.23;;
14231;SDS011;7200;52.194;9.900;2022-11-20T08:09:51;0.70;;;0.70;;
14231;SDS011;7200;52.194;9.900;2022-11-20T08:12:20;2.30;;;2.27;;
14231;SDS011;7200;52.194;9.900;2022-11-20T08:15:04;1.37;;;1.37;;
14231;SDS011;7200;52.194;9.900;2022-11-20T08:17:30;0.50;;;0.50;;
14231;SDS011;7200;52.194;9.900;2022-11-20T08:19:55;1.50;;;0.80;;
14231;SDS011;7200;52.194;9.900;2022-11-20T08:22:21;5.40;;;4.93;;
14231;SDS011;7200;52.194;9.900;2022-11-20T08:24:46;0.80;;;0.80;;
14231;SDS011;7200;52.194;9.900;2022-11-20T08:27:12;2.00;;;1.90;;
14231;SDS011;7200;52.194;9.900;2022-11-20T08:29:37;0.97;;;0.97;;
14231;SDS011;7200;52.194;9.900;2022-11-20T08:32:02;1.20;;;1.20;;
14231;SDS011;7200;52.194;9.900;2022-11-20T08:34:28;1.87;;;1.83;;
14231;SDS011;7200;52.194;9.900;2022-11-20T08:36:53;0.20;;;0.20;;
14231;SDS011;7200;52.194;9.900;2022-11-20T08:39:18;3.70;;;3.50;;
14231;SDS011;7200;52.194;9.900;2022-11-20T08:41:43;0.67;;;0.67;;
14231;SDS011;7200;52.194;9.900;2022-11-20T08:44:09;0.47;;;0.47;;
14231;SDS011;7200;52.194;9.900;2022-11-20T08:46:38;5.43;;;1.03;;
14231;SDS011;7200;52.194;9.900;2022-11-20T08:49:06;0.20;;;0.20;;
14231;SDS011;7200;52.194;9.900;2022-11-20T08:51:34;0.27;;;0.27;;
14231;SDS011;7200;52.194;9.900;2022-11-20T08:54:00;5.97;;;2.87;;
14231;SDS011;7200;52.194;9.900;2022-11-20T08:56:25;9.23;;;7.30;;
14231;SDS011;7200;52.194;9.900;2022-11-20T08:58:51;6.00;;;4.40;;
14231;SDS011;7200;52.194;9.900;2022-11-20T09:01:17;8.07;;;7.27;;
14231;SDS011;7200;52.194;9.900;2022-11-20T09:03:44;2.50;;;2.37;;
14231;SDS011;7200;52.194;9.900;2022-11-20T09:06:10;1.17;;;1.07;;
14231;SDS011;7200;52.194;9.900;2022-11-20T09:08:35;0.37;;;0.37;;
14231;SDS011;7200;52.194;9.900;2022-11-20T09:11:01;2.10;;;1.93;;
14231;SDS011;7200;52.194;9.900;2022-11-20T09:13:27;3.33;;;3.07;;
14231;SDS011;7200;52.194;9.900;2022-11-20T09:15:57;0.20;;;0.20;;
14231;SDS011;7200;52.194;9.900;2022-11-20T09:18:24;0.20;;;0.20;;
14231;SDS011;7200;52.194;9.900;2022-11-20T09:20:50;0.53;;;0.53;;
14231;SDS011;7200;52.194;9.900;2022-11-20T09:23:15;11.90;;;2.17;;
14231;SDS011;7200;52.194;9.900;2022-11-20T09:25:41;0.20;;;0.20;;
14231;SDS011;7200;52.194;9.900;2022-11-20T09:28:06;3.53;;;3.23;;
14231;SDS011;7200;52.194;9.900;2022-11-20T09:30:32;2.70;;;2.53;;
14231;SDS011;7200;52.194;9.900;2022-11-20T09:32:58;6.00;;;5.13;;
14231;SDS011;7200;52.194;9.900;2022-11-20T09:35:23;3.63;;;2.60;;
14231;SDS011;7200;52.194;9.900;2022-11-20T09:37:48;3.97;;;2.80;;
14231;SDS011;7200;52.194;9.900;2022-11-20T09:40:20;0.83;;;0.83;;
14231;SDS011;7200;52.194;9.900;2022-11-20T09:42:55;0.23;;;0.23;;
14231;SDS011;7200;52.194;9.900;2022-11-20T09:48:36;1.60;;;1.57;;
14231;SDS011;7200;52.194;9.900;2022-11-20T09:56:44;4.00;;;2.17;;
14231;SDS011;7200;52.194;9.900;2022-11-20T10:01:47;8.03;;;7.27;;
14231;SDS011;7200;52.194;9.900;2022-11-20T10:04:15;6.77;;;6.17;;
14231;SDS011;7200;52.194;9.900;2022-11-20T10:12:19;5.03;;;4.53;;
14231;SDS011;7200;52.194;9.900;2022-11-20T10:15:04;3.00;;;2.50;;
14231;SDS011;7200;52.194;9.900;2022-11-20T10:28:58;4.33;;;3.47;;
14231;SDS011;7200;52.194;9.900;2022-11-20T10:31:33;2.17;;;1.60;;
14231;SDS011;7200;52.194;9.900;2022-11-20T10:34:03;8.73;;;7.90;;
14231;SDS011;7200;52.194;9.900;2022-11-20T10:36:41;4.20;;;3.70;;
14231;SDS011;7200;52.194;9.900;2022-11-20T10:39:16;4.20;;;3.83;;
14231;SDS011;7200;52.194;9.900;2022-11-20T10:41:48;7.70;;;7.00;;
14231;SDS011;7200;52.194;9.900;2022-11-20T10:44:16;6.57;;;5.93;;
14231;SDS011;7200;52.194;9.900;2022-11-20T10:47:04;8.57;;;5.10;;
14231;SDS011;7200;52.194;9.900;2022-11-20T10:49:34;6.03;;;5.43;;
14231;SDS011;7200;52.194;9.900;2022-11-20T10:54:46;10.90;;;8.43;;
14231;SDS011;7200;52.194;9.900;2022-11-20T10:57:44;6.97;;;6.27;;
14231;SDS011;7200;52.194;9.900;2022-11-20T11:00:20;8.93;;;8.03;;
14231;SDS011;7200;52.194;9.900;2022-11-20T11:02:52;6.70;;;6.03;;
14231;SDS011;7200;52.194;9.900;2022-11-20T11:07:54;9.40;;;7.73;;
14231;SDS011;7200;52.194;9.900;2022-11-20T11:13:06;8.80;;;6.40;;
14231;SDS011;7200;52.194;9.900;2022-11-20T11:15:38;8.60;;;7.30;;
14231;SDS011;7200;52.194;9.900;2022-11-20T11:18:05;8.90;;;6.53;;
14231;SDS011;7200;52.194;9.900;2022-11-20T11:20:34;9.03;;;8.10;;
14231;SDS011;7200;52.194;9.900;2022-11-20T11:22:59;9.50;;;6.03;;
14231;SDS011;7200;52.194;9.900;2022-11-20T11:25:29;6.20;;;4.90;;
14231;SDS011;7200;52.194;9.900;2022-11-20T11:27:59;8.40;;;6.53;;
14231;SDS011;7200;52.194;9.900;2022-11-20T11:30:26;6.07;;;5.47;;
14231;SDS011;7200;52.194;9.900;2022-11-20T11:33:04;7.43;;;5.90;;
14231;SDS011;7200;52.194;9.900;2022-11-20T11:35:31;6.13;;;5.53;;
14231;SDS011;7200;52.194;9.900;2022-11-20T11:38:10;10.17;;;6.20;;
14231;SDS011;7200;52.194;9.900;2022-11-20T11:40:39;2.97;;;2.73;;
14231;SDS011;7200;52.194;9.900;2022-11-20T11:43:06;2.83;;;2.57;;
14231;SDS011;7200;52.194;9.900;2022-11-20T11:46:01;7.37;;;6.23;;
14231;SDS011;7200;52.194;9.900;2022-11-20T11:48:27;6.83;;;4.80;;
14231;SDS011;7200;52.194;9.900;2022-11-20T11:50:52;10.20;;;8.67;;
14231;SDS011;7200;52.194;9.900;2022-11-20T11:53:19;4.97;;;4.47;;
14231;SDS011;7200;52.194;9.900;2022-11-20T12:03:44;8.87;;;6.63;;
14231;SDS011;7200;52.194;9.900;2022-11-20T12:06:36;2.00;;;1.33;;
14231;SDS011;7200;52.194;9.900;2022-11-20T12:09:10;6.37;;;5.27;;
14231;SDS011;7200;52.194;9.900;2022-11-20T12:14:34;5.33;;;4.83;;
14231;SDS011;7200;52.194;9.900;2022-11-20T12:17:05;5.67;;;5.07;;
14231;SDS011;7200;52.194;9.900;2022-11-20T12:19:31;7.47;;;6.43;;
14231;SDS011;7200;52.194;9.900;2022-11-20T12:24:51;5.10;;;4.43;;
14231;SDS011;7200;52.194;9.900;2022-11-20T12:30:13;10.73;;;9.60;;
14231;SDS011;7200;52.194;9.900;2022-11-20T12:33:26;8.87;;;7.97;;
14231;SDS011;7200;52.194;9.900;2022-11-20T12:35:46;5.30;;;4.80;;
14231;SDS011;7200;52.194;9.900;2022-11-20T12:43:53;6.63;;;5.70;;
14231;SDS011;7200;52.194;9.900;2022-11-20T12:47:06;9.57;;;8.60;;
14231;SDS011;7200;52.194;9.900;2022-11-20T12:49:48;4.67;;;3.77;;
14231;SDS011;7200;52.194;9.900;2022-11-20T12:55:16;5.87;;;4.73;;
14231;SDS011;7200;52.194;9.900;2022-11-20T12:57:56;7.63;;;6.40;;
14231;SDS011;7200;52.194;9.900;2022-11-20T13:00:25;5.37;;;4.77;;
14231;SDS011;7200;52.194;9.900;2022-11-20T13:08:01;8.13;;;6.17;;
14231;SDS011;7200;52.194;9.900;2022-11-20T13:10:47;8.80;;;7.90;;
14231;SDS011;7200;52.194;9.900;2022-11-20T13:13:24;10.37;;;8.13;;
14231;SDS011;7200;52.194;9.900;2022-11-20T13:18:24;9.77;;;8.73;;
14231;SDS011;7200;52.194;9.900;2022-11-20T13:20:50;7.27;;;6.63;;
14231;SDS011;7200;52.194;9.900;2022-11-20T13:23:23;8.47;;;7.57;;
14231;SDS011;7200;52.194;9.900;2022-11-20T13:29:02;7.93;;;6.67;;
14231;SDS011;7200;52.194;9.900;2022-11-20T13:31:49;8.43;;;3.10;;
14231;SDS011;7200;52.194;9.900;2022-11-20T13:34:24;6.90;;;5.97;;
14231;SDS011;7200;52.194;9.900;2022-11-20T13:36:52;7.20;;;6.13;;
14231;SDS011;7200;52.194;9.900;2022-11-20T13:39:26;0.83;;;0.40;;
14231;SDS011;7200;52.194;9.900;2022-11-20T13:41:55;3.63;;;2.23;;
14231;SDS011;7200;52.194;9.900;2022-11-20T13:44:29;1.93;;;1.23;;
14231;SDS011;7200;52.194;9.900;2022-11-20T13:47:02;7.43;;;6.63;;
14231;SDS011;7200;52.194;9.900;2022-11-20T13:58:18;5.00;;;2.23;;
14231;SDS011;7200;52.194;9.900;2022-11-20T14:00:57;8.07;;;6.43;;
14231;SDS011;7200;52.194;9.900;2022-11-20T14:03:27;3.10;;;2.80;;
14231;SDS011;7200;52.194;9.900;2022-11-20T14:05:55;1.50;;;1.50;;
14231;SDS011;7200;52.194;9.900;2022-11-20T14:08:37;0.20;;;0.20;;
14231;SDS011;7200;52.194;9.900;2022-11-20T14:11:16;3.90;;;2.30;;
14231;SDS011;7200;52.194;9.900;2022-11-20T14:16:41;3.97;;;3.17;;
14231;SDS011;7200;52.194;9.900;2022-11-20T14:21:47;4.43;;;4.00;;
14231;SDS011;7200;52.194;9.900;2022-11-20T14:24:13;1.90;;;1.80;;
14231;SDS011;7200;52.194;9.900;2022-11-20T14:26:47;8.10;;;5.37;;
14231;SDS011;7200;52.194;9.900;2022-11-20T14:29:19;2.70;;;2.50;;
14231;SDS011;7200;52.194;9.900;2022-11-20T14:31:50;1.50;;;1.17;;
14231;SDS011;7200;52.194;9.900;2022-11-20T14:34:27;0.50;;;0.50;;
14231;SDS011;7200;52.194;9.900;2022-11-20T14:36:59;0.37;;;0.37;;
14231;SDS011;7200;52.194;9.900;2022-11-20T14:42:02;2.57;;;2.33;;
14231;SDS011;7200;52.194;9.900;2022-11-20T14:44:39;0.20;;;0.20;;
14231;SDS011;7200;52.194;9.900;2022-11-20T14:47:05;1.30;;;1.20;;
14231;SDS011;7200;52.194;9.900;2022-11-20T14:49:31;0.20;;;0.20;;
14231;SDS011;7200;52.194;9.900;2022-11-20T14:52:01;0.20;;;0.20;;
14231;SDS011;7200;52.194;9.900;2022-11-20T14:54:33;3.50;;;3.07;;
14231;SDS011;7200;52.194;9.900;2022-11-20T14:57:19;1.97;;;1.87;;
14231;SDS011;7200;52.194;9.900;2022-11-20T14:59:46;1.70;;;1.70;;
14231;SDS011;7200;52.194;9.900;2022-11-20T15:02:12;0.20;;;0.20;;
14231;SDS011;7200;52.194;9.900;2022-11-20T15:04:44;1.07;;;0.63;;
14231;SDS011;7200;52.194;9.900;2022-11-20T15:07:24;0.20;;;0.20;;
14231;SDS011;7200;52.194;9.900;2022-11-20T15:12:26;0.20;;;0.20;;
14231;SDS011;7200;52.194;9.900;2022-11-20T15:14:54;0.20;;;0.20;;
14231;SDS011;7200;52.194;9.900;2022-11-20T15:17:20;0.67;;;0.67;;
14231;SDS011;7200;52.194;9.900;2022-11-20T15:19:45;0.20;;;0.20;;
14231;SDS011;7200;52.194;9.900;2022-11-20T15:22:11;0.43;;;0.43;;
14231;SDS011;7200;52.194;9.900;2022-11-20T15:24:41;0.20;;;0.20;;
14231;SDS011;7200;52.194;9.900;2022-11-20T15:27:07;0.97;;;0.97;;
14231;SDS011;7200;52.194;9.900;2022-11-20T15:29:33;0.20;;;0.20;;
14231;SDS011;7200;52.194;9.900;2022-11-20T15:31:58;0.73;;;0.73;;
14231;SDS011;7200;52.194;9.900;2022-11-20T15:34:26;0.20;;;0.20;;
14231;SDS011;7200;52.194;9.900;2022-11-20T15:36:52;0.17;;;0.17;;
14231;SDS011;7200;52.194;9.900;2022-11-20T15:39:18;0.20;;;0.20;;
14231;SDS011;7200;52.194;9.900;2022-11-20T15:41:43;0.20;;;0.20;;
14231;SDS011;7200;52.194;9.900;2022-11-20T15:44:09;0.20;;;0.20;;
14231;SDS011;7200;52.194;9.900;2022-11-20T15:46:35;0.10;;;0.10;;
14231;SDS011;7200;52.194;9.900;2022-11-20T15:49:05;0.20;;;0.20;;
14231;SDS011;7200;52.194;9.900;2022-11-20T15:51:34;0.10;;;0.10;;
14231;SDS011;7200;52.194;9.900;2022-11-20T15:54:03;0.10;;;0.10;;
14231;SDS011;7200;52.194;9.900;2022-11-20T15:56:35;0.20;;;0.20;;
14231;SDS011;7200;52.194;9.900;2022-11-20T15:59:00;0.20;;;0.20;;
14231;SDS011;7200;52.194;9.900;2022-11-20T16:01:26;0.30;;;0.30;;
14231;SDS011;7200;52.194;9.900;2022-11-20T16:03:51;0.20;;;0.20;;
14231;SDS011;7200;52.194;9.900;2022-11-20T16:06:16;1.90;;;1.90;;
14231;SDS011;7200;52.194;9.900;2022-11-20T16:08:42;8.13;;;2.10;;
14231;SDS011;7200;52.194;9.900;2022-11-20T16:11:10;0.20;;;0.20;;
14231;SDS011;7200;52.194;9.900;2022-11-20T16:13:37;0.20;;;0.20;;
14231;SDS011;7200;52.194;9.900;2022-11-20T16:16:32;0.20;;;0.20;;
14231;SDS011;7200;52.194;9.900;2022-11-20T16:18:59;10.40;;;4.90;;
14231;SDS011;7200;52.194;9.900;2022-11-20T16:21:25;2.93;;;2.73;;
14231;SDS011;7200;52.194;9.900;2022-11-20T16:24:00;0.30;;;0.30;;
14231;SDS011;7200;52.194;9.900;2022-11-20T16:26:28;2.73;;;2.63;;
14231;SDS011;7200;52.194;9.900;2022-11-20T16:28:53;0.20;;;0.20;;
14231;SDS011;7200;52.194;9.900;2022-11-20T16:31:19;0.30;;;0.30;;
14231;SDS011;7200;52.194;9.900;2022-11-20T16:33:52;0.33;;;0.33;;
14231;SDS011;7200;52.194;9.900;2022-11-20T16:36:19;0.20;;;0.20;;
14231;SDS011;7200;52.194;9.900;2022-11-20T16:38:45;0.73;;;0.73;;
14231;SDS011;7200;52.194;9.900;2022-11-20T16:41:11;0.30;;;0.30;;
14231;SDS011;7200;52.194;9.900;2022-11-20T16:43:47;0.20;;;0.20;;
14231;SDS011;7200;52.194;9.900;2022-11-20T16:46:22;0.23;;;0.23;;